Current | Forecast
Updated: 2:00 PM CEST on June 23, 2017
Observed at Sabadell, Spain
Temperature 35°C
Humidity 30%
Dew Point 15°C
Wind South at 15 km/h
Pressure 1019 hPa (Steady)
Conditions Clear
Visibility -
UV N/A
Clouds
Yesterday's Maximum 36°C
Yesterday's Minimum 22°C approx.
Yesterday's Cooling Degree Days 19 approx.
Sunrise6:18 AM CEST
Sunset9:28 PM CEST
Moon Rise5:49 AM CEST
Moon Set8:43 PM CEST
Moon PhaseMoon Phase
Waning Crescent
Raw METARMETAR LELL 231200Z 17008KT 110V210 CAVOK 35/15 Q1019


Monday
. High: 86° F.
Tuesday
. High: 80° F.
Wednesday
. High: 82° F.
Thursday
. High: 77° F.
Friday
. High: 77° F.
Saturday
. High: 82° F.
Sunday
. High: 86° F.
Monday
. High: 80° F.

Click here for Marine Information
Scientific forecaster discussion (NWS)

Units: English | Metric

Find the Weather for any City, State or Zipcode, or Country:

U.S. State List | Severe Weather | Tropical Storms | Ski Conditions
United States | Canada | Central America | South America | Asia | Europe | Australia | Africa | Islands

Weather Underground

© Copyright 2017
The Weather Company, LLC